Time;durP1;ratioP1;P1;durP2;ratioP2;P2;SDS_P1;SDS_P2;PMS_P1;PMS_P2;Temp;Humidity;BMP_temperature;BMP_pressure;BME280_temperature;BME280_humidity;BME280_pressure;Samples;Min_cycle;Max_cycle;Signal;HPM_P1;HPM_P2
2023/03/07 00:01:31;;;;;;;;;;;;;;;8.20;100.00;99930.66;5070185;28;19974;-73
2023/03/07 00:03:57;;;;;;;;;;;;;;;8.15;100.00;99933.09;5051943;28;19962;-70
2023/03/07 00:06:23;;;;;;;;;;;;;;;8.05;100.00;99925.81;5068425;28;20329;-73
2023/03/07 00:08:50;;;;;;;;;;;;;;;7.93;100.00;99919.38;5018457;28;20394;-71
2023/03/07 00:11:36;;;;;;;;;;;;;;;7.77;100.00;99917.03;5070561;28;19934;-71
2023/03/07 00:14:05;;;;;;;;;;;;;;;7.67;100.00;99915.81;5047808;28;19920;-71
2023/03/07 00:16:32;;;;;;;;;;;;;;;7.60;100.00;99908.66;5031960;28;19908;-72
2023/03/07 00:19:01;;;;;;;;;;;;;;;7.56;100.00;99905.13;5047451;28;19970;-73
2023/03/07 00:21:31;;;;;;;;;;;;;;;7.59;100.00;99896.66;5047784;28;19966;-73
2023/03/07 00:24:16;;;;;;;;;;;;;;;7.67;100.00;99895.25;5039563;28;19913;-72
2023/03/07 00:27:03;;;;;;;;;;;;;;;7.68;100.00;99898.72;5025089;28;19924;-71
2023/03/07 00:29:29;;;;;;;;;;;;;;;7.63;100.00;99892.50;4969152;28;19914;-71
2023/03/07 00:31:56;;;;;;;;;;;;;;;7.58;100.00;99888.06;4973903;28;20012;-73
2023/03/07 00:34:41;;;;;;;;;;;;;;;7.58;100.00;99884.63;4924278;29;20262;-73
2023/03/07 00:37:06;;;;;;;;;;;;;;;7.64;100.00;99884.88;4933273;29;19921;-74
2023/03/07 00:39:31;;;;;;;;;;;;;;;7.72;100.00;99892.88;4932968;29;19911;-72
2023/03/07 00:41:57;;;;;;;;;;;;;;;7.80;100.00;99891.47;4932997;29;19969;-72
2023/03/07 00:44:24;;;;;;;;;;;;;;;7.68;100.00;99893.56;4933100;29;19914;-72
2023/03/07 00:46:49;;;;;;;;;;;;;;;7.60;100.00;99891.56;4933234;29;19918;-70
2023/03/07 00:49:14;;;;;;;;;;;;;;;7.57;100.00;99899.13;4932766;29;20485;-69
2023/03/07 00:51:40;;;;;;;;;;;;;;;7.62;100.00;99901.91;4933181;29;19921;-70
2023/03/07 00:54:05;;;;;;;;;;;;;;;7.65;100.00;99896.00;4933085;29;20058;-74
2023/03/07 00:56:30;;;;;;;;;;;;;;;7.65;100.00;99891.75;4932838;29;19925;-75
2023/03/07 00:58:56;;;;;;;;;;;;;;;7.50;100.00;99897.16;4968317;28;19944;-74
2023/03/07 01:01:22;;;;;;;;;;;;;;;7.47;100.00;99897.03;4971238;28;20313;-71
2023/03/07 01:03:48;;;;;;;;;;;;;;;7.37;100.00;99897.47;4971126;28;19966;-72
2023/03/07 01:06:14;;;;;;;;;;;;;;;7.28;100.00;99895.41;4980191;28;20387;-71
2023/03/07 01:08:40;;;;;;;;;;;;;;;7.31;100.00;99899.81;5010099;28;20022;-69
2023/03/07 01:11:06;;;;;;;;;;;;;;;7.32;100.00;99899.00;5012942;28;20056;-69
2023/03/07 01:13:32;;;;;;;;;;;;;;;7.30;100.00;99888.63;5052884;28;19997;-69
2023/03/07 01:16:06;;;;;;;;;;;;;;;7.36;100.00;99882.88;5052441;28;19913;-70
2023/03/07 01:18:32;;;;;;;;;;;;;;;7.44;100.00;99881.50;5051970;28;19959;-72
2023/03/07 01:20:57;;;;;;;;;;;;;;;7.56;100.00;99881.09;5071481;28;19920;-70
2023/03/07 01:23:22;;;;;;;;;;;;;;;7.60;100.00;99872.69;5071779;28;19913;-71
2023/03/07 01:25:48;;;;;;;;;;;;;;;7.71;100.00;99871.44;5071740;28;20376;-71
2023/03/07 01:28:13;;;;;;;;;;;;;;;7.80;100.00;99876.06;5072034;28;19916;-70
2023/03/07 01:30:39;;;;;;;;;;;;;;;7.77;100.00;99883.63;5071957;28;19915;-71
2023/03/07 01:33:04;;;;;;;;;;;;;;;7.54;100.00;99878.50;5053621;28;19966;-68
2023/03/07 01:35:34;;;;;;;;;;;;;;;7.42;100.00;99872.84;5072107;28;19912;-71
2023/03/07 01:38:00;;;;;;;;;;;;;;;7.35;100.00;99870.84;5071621;28;19912;-71
2023/03/07 01:40:25;;;;;;;;;;;;;;;7.27;100.00;99873.13;5071561;28;19930;-71
2023/03/07 01:42:52;;;;;;;;;;;;;;;7.08;100.00;99868.94;5071802;28;20358;-71
2023/03/07 01:45:32;;;;;;;;;;;;;;;6.85;100.00;99866.25;5072045;28;19973;-72
2023/03/07 01:47:57;;;;;;;;;;;;;;;6.47;100.00;99865.53;5060639;28;19922;-71
2023/03/07 01:50:23;;;;;;;;;;;;;;;6.30;100.00;99865.63;5071506;28;20325;-70
2023/03/07 01:52:51;;;;;;;;;;;;;;;6.39;100.00;99865.19;5028650;28;20391;-71
2023/03/07 01:55:17;;;;;;;;;;;;;;;6.40;100.00;99866.91;5029232;28;20023;-72
2023/03/07 01:57:44;;;;;;;;;;;;;;;6.52;100.00;99863.13;5029284;28;19956;-71
2023/03/07 02:00:12;;;;;;;;;;;;;;;6.53;100.00;99864.88;5029012;28;19909;-69
2023/03/07 02:02:39;;;;;;;;;;;;;;;6.55;100.00;99859.00;5009387;28;19921;-70
2023/03/07 02:05:10;;;;;;;;;;;;;;;6.57;100.00;99849.72;5025334;28;19916;-72
2023/03/07 02:07:41;;;;;;;;;;;;;;;6.59;100.00;99854.91;5028121;28;19921;-71
2023/03/07 02:10:07;;;;;;;;;;;;;;;6.53;100.00;99855.53;5028265;28;19913;-71
2023/03/07 02:12:33;;;;;;;;;;;;;;;6.52;100.00;99853.75;5028479;28;19913;-71
2023/03/07 02:14:58;;;;;;;;;;;;;;;6.40;100.00;99853.22;5028453;28;19920;-71
2023/03/07 02:17:24;;;;;;;;;;;;;;;6.27;100.00;99857.81;5028008;28;20406;-72
2023/03/07 02:19:52;;;;;;;;;;;;;;;5.95;100.00;99864.91;5027483;28;19980;-72
2023/03/07 02:22:18;;;;;;;;;;;;;;;5.65;100.00;99870.34;5028098;28;19917;-71
2023/03/07 02:24:49;;;;;;;;;;;;;;;5.38;100.00;99869.91;5065037;28;19920;-71
2023/03/07 02:27:14;;;;;;;;;;;;;;;5.17;100.00;99872.31;5070180;28;20358;-72
2023/03/07 02:29:40;;;;;;;;;;;;;;;4.94;100.00;99866.94;5070168;28;19912;-72
2023/03/07 02:32:05;;;;;;;;;;;;;;;4.90;100.00;99865.06;5070139;28;19913;-72
2023/03/07 02:34:31;;;;;;;;;;;;;;;4.88;100.00;99874.31;5069816;28;19917;-72
2023/03/07 02:37:08;;;;;;;;;;;;;;;4.98;100.00;99863.72;5070209;28;19919;-72
2023/03/07 02:39:33;;;;;;;;;;;;;;;5.09;100.00;99856.59;5068615;28;19912;-73
2023/03/07 02:42:02;;;;;;;;;;;;;;;5.09;100.00;99848.91;5070253;28;20418;-73
2023/03/07 02:44:27;;;;;;;;;;;;;;;5.24;100.00;99851.34;5055631;28;20458;-72
2023/03/07 02:46:53;;;;;;;;;;;;;;;5.33;100.00;99864.59;5050449;28;20424;-71
2023/03/07 02:49:18;;;;;;;;;;;;;;;5.26;100.00;99857.41;5069976;28;19924;-72
2023/03/07 02:51:43;;;;;;;;;;;;;;;5.16;100.00;99863.78;5053273;28;20453;-75
2023/03/07 02:54:09;;;;;;;;;;;;;;;4.99;100.00;99862.06;5055128;28;19956;-69
2023/03/07 02:56:34;;;;;;;;;;;;;;;4.80;100.00;99852.63;5066667;28;19920;-72
2023/03/07 02:58:59;;;;;;;;;;;;;;;4.61;100.00;99854.25;5069814;28;19967;-71
2023/03/07 03:01:25;;;;;;;;;;;;;;;4.94;100.00;99850.72;5070219;28;19920;-76
2023/03/07 03:03:50;;;;;;;;;;;;;;;5.17;100.00;99850.19;5070610;28;19956;-72
2023/03/07 03:06:15;;;;;;;;;;;;;;;5.21;100.00;99843.53;5070650;28;19913;-74
2023/03/07 03:08:41;;;;;;;;;;;;;;;5.34;100.00;99838.16;5057381;28;19924;-70
2023/03/07 03:11:06;;;;;;;;;;;;;;;5.41;100.00;99836.81;5069893;28;20449;-72
2023/03/07 03:13:31;;;;;;;;;;;;;;;5.48;100.00;99836.28;5070541;28;19940;-70
2023/03/07 03:15:57;;;;;;;;;;;;;;;5.62;100.00;99833.47;5070153;28;19916;-73
2023/03/07 03:18:42;;;;;;;;;;;;;;;5.75;100.00;99845.19;5027664;28;19924;-73
2023/03/07 03:21:08;;;;;;;;;;;;;;;5.54;100.00;99851.06;5027731;28;20358;-76
2023/03/07 03:23:34;;;;;;;;;;;;;;;5.14;100.00;99844.91;5027865;28;20419;-73
2023/03/07 03:26:00;;;;;;;;;;;;;;;5.07;100.00;99844.53;5027773;28;19917;-71
2023/03/07 03:28:25;;;;;;;;;;;;;;;4.89;100.00;99840.28;5027906;28;19913;-69
2023/03/07 03:30:57;;;;;;;;;;;;;;;4.86;100.00;99837.56;5027692;28;19968;-71
2023/03/07 03:33:22;;;;;;;;;;;;;;;5.05;100.00;99828.22;5027816;28;20077;-69
2023/03/07 03:35:48;;;;;;;;;;;;;;;5.07;100.00;99836.84;5027692;28;19917;-72
2023/03/07 03:38:13;;;;;;;;;;;;;;;4.95;100.00;99832.91;5027868;28;20355;-73
2023/03/07 03:40:38;;;;;;;;;;;;;;;4.88;100.00;99840.19;5027764;28;19917;-72
2023/03/07 03:43:03;;;;;;;;;;;;;;;4.80;100.00;99844.94;5027527;28;19917;-70
2023/03/07 03:45:29;;;;;;;;;;;;;;;4.73;100.00;99842.88;5027478;28;19917;-73
2023/03/07 03:47:54;;;;;;;;;;;;;;;4.66;100.00;99839.09;5027933;28;20320;-72
2023/03/07 03:50:19;;;;;;;;;;;;;;;4.52;100.00;99841.88;5027555;28;19919;-71
2023/03/07 03:52:44;;;;;;;;;;;;;;;4.37;100.00;99844.53;5027624;28;20670;-76
2023/03/07 03:55:10;;;;;;;;;;;;;;;4.36;100.00;99847.88;5029902;28;19909;-71
2023/03/07 03:57:35;;;;;;;;;;;;;;;4.29;100.00;99858.56;5049462;28;20023;-72
2023/03/07 04:00:03;;;;;;;;;;;;;;;4.19;100.00;99859.75;5049620;28;19917;-72
2023/03/07 04:02:29;;;;;;;;;;;;;;;4.01;100.00;99864.78;5049965;28;20012;-71
2023/03/07 04:04:55;;;;;;;;;;;;;;;4.02;100.00;99869.06;5052692;28;19971;-69
2023/03/07 04:07:21;;;;;;;;;;;;;;;4.10;100.00;99866.94;5053895;28;19917;-75
2023/03/07 04:09:46;;;;;;;;;;;;;;;3.78;100.00;99872.88;5053250;28;20412;-72
2023/03/07 04:12:11;;;;;;;;;;;;;;;3.70;100.00;99870.78;5052191;28;19956;-72
2023/03/07 04:14:36;;;;;;;;;;;;;;;3.68;100.00;99872.34;5053105;28;19917;-73
2023/03/07 04:17:02;;;;;;;;;;;;;;;3.69;100.00;99871.56;5039046;28;19975;-72
2023/03/07 04:19:27;;;;;;;;;;;;;;;3.78;100.00;99880.53;5060452;28;19955;-74
2023/03/07 04:21:52;;;;;;;;;;;;;;;3.85;100.00;99874.94;5072994;28;19920;-70
2023/03/07 04:24:17;;;;;;;;;;;;;;;3.91;100.00;99869.31;5055490;28;19912;-72
2023/03/07 04:26:43;;;;;;;;;;;;;;;3.67;100.00;99873.16;5068329;28;19916;-72
2023/03/07 04:29:08;;;;;;;;;;;;;;;3.59;100.00;99864.22;5072451;28;19916;-72
2023/03/07 04:31:33;;;;;;;;;;;;;;;3.60;100.00;99868.53;5072051;28;19955;-72
2023/03/07 04:33:59;;;;;;;;;;;;;;;3.33;100.00;99873.84;5072565;28;19947;-70
2023/03/07 04:36:24;;;;;;;;;;;;;;;3.33;100.00;99876.38;5072456;28;20283;-70
2023/03/07 04:38:49;;;;;;;;;;;;;;;3.43;100.00;99876.88;5071320;28;19923;-71
2023/03/07 04:41:19;;;;;;;;;;;;;;;3.48;100.00;99878.06;5071631;28;20341;-70
2023/03/07 04:43:45;;;;;;;;;;;;;;;3.46;100.00;99877.06;5071600;28;19923;-72
2023/03/07 04:46:30;;;;;;;;;;;;;;;3.14;100.00;99888.88;5029822;28;19913;-72
2023/03/07 04:48:56;;;;;;;;;;;;;;;3.10;100.00;99889.50;5029613;28;19913;-72
2023/03/07 04:51:22;;;;;;;;;;;;;;;3.23;100.00;99886.88;5029752;28;19913;-72
2023/03/07 04:53:47;;;;;;;;;;;;;;;3.30;100.00;99886.44;5029324;28;19917;-73
2023/03/07 04:56:15;;;;;;;;;;;;;;;3.48;100.00;99885.72;5029464;28;19917;-72
2023/03/07 04:58:40;;;;;;;;;;;;;;;3.59;100.00;99892.28;5029802;28;19913;-72
2023/03/07 05:01:06;;;;;;;;;;;;;;;3.70;100.00;99886.09;5029549;28;19913;-72
2023/03/07 05:03:32;;;;;;;;;;;;;;;3.85;100.00;99888.59;5029703;28;19913;-75
2023/03/07 05:06:00;;;;;;;;;;;;;;;3.66;100.00;99893.50;5029346;28;19920;-72
2023/03/07 05:08:25;;;;;;;;;;;;;;;3.73;100.00;99888.81;5028636;28;19928;-70
2023/03/07 05:10:50;;;;;;;;;;;;;;;3.83;100.00;99889.31;5029600;28;19913;-72
2023/03/07 05:13:16;;;;;;;;;;;;;;;3.91;100.00;99885.50;5029571;28;20046;-72
2023/03/07 05:15:41;;;;;;;;;;;;;;;3.99;100.00;99897.00;5028738;28;19916;-72
2023/03/07 05:18:06;;;;;;;;;;;;;;;4.08;100.00;99888.09;5061590;28;20313;-72
2023/03/07 05:20:32;;;;;;;;;;;;;;;3.99;100.00;99889.34;5071296;28;20041;-72
2023/03/07 05:22:59;;;;;;;;;;;;;;;4.16;100.00;99891.91;5071539;28;20430;-73
2023/03/07 05:25:24;;;;;;;;;;;;;;;3.97;100.00;99896.03;5071231;28;20485;-72
2023/03/07 05:27:49;;;;;;;;;;;;;;;4.10;100.00;99897.59;5066590;28;19920;-71
2023/03/07 05:30:15;;;;;;;;;;;;;;;3.89;100.00;99902.44;5071820;28;19923;-72
2023/03/07 05:32:41;;;;;;;;;;;;;;;3.85;100.00;99905.59;5072299;28;19916;-71
2023/03/07 05:35:08;;;;;;;;;;;;;;;3.62;100.00;99910.31;5072064;28;19931;-72
2023/03/07 05:37:33;;;;;;;;;;;;;;;3.44;100.00;99910.19;5072363;28;20027;-70
2023/03/07 05:39:59;;;;;;;;;;;;;;;3.52;100.00;99913.16;5053645;28;20015;-70
2023/03/07 05:42:24;;;;;;;;;;;;;;;3.73;100.00;99909.22;5070635;28;20371;-72
2023/03/07 05:44:49;;;;;;;;;;;;;;;3.76;100.00;99915.31;5035859;28;19912;-70
2023/03/07 05:47:15;;;;;;;;;;;;;;;3.64;100.00;99910.38;5071862;28;19912;-73
2023/03/07 05:49:40;;;;;;;;;;;;;;;3.70;100.00;99905.63;5071480;28;19943;-73
2023/03/07 05:52:05;;;;;;;;;;;;;;;3.81;100.00;99901.97;5068386;28;19917;-74
2023/03/07 05:54:30;;;;;;;;;;;;;;;3.92;100.00;99907.69;5055925;28;19993;-72
2023/03/07 05:56:56;;;;;;;;;;;;;;;3.94;100.00;99915.41;5032755;28;20157;-71
2023/03/07 05:59:23;;;;;;;;;;;;;;;3.86;100.00;99915.91;5060822;28;20441;-69
2023/03/07 06:01:48;;;;;;;;;;;;;;;3.78;100.00;99919.69;5050258;28;19917;-72
2023/03/07 06:04:14;;;;;;;;;;;;;;;3.76;100.00;99923.84;5051072;28;19920;-68
2023/03/07 06:06:39;;;;;;;;;;;;;;;3.35;100.00;99928.41;5050704;28;19917;-71
2023/03/07 06:09:04;;;;;;;;;;;;;;;3.51;100.00;99930.13;5050473;28;19913;-72
2023/03/07 06:11:30;;;;;;;;;;;;;;;3.64;100.00;99931.72;5050688;28;19999;-72
2023/03/07 06:13:55;;;;;;;;;;;;;;;3.75;100.00;99923.75;5068967;28;19973;-71
2023/03/07 06:16:21;;;;;;;;;;;;;;;3.83;100.00;99922.50;5069375;28;19909;-72
2023/03/07 06:18:46;;;;;;;;;;;;;;;3.93;100.00;99923.91;5060676;28;19920;-71
2023/03/07 06:21:14;;;;;;;;;;;;;;;3.97;100.00;99931.78;5050036;28;19948;-71
2023/03/07 06:23:39;;;;;;;;;;;;;;;4.17;100.00;99926.91;5062116;28;19965;-71
2023/03/07 06:26:04;;;;;;;;;;;;;;;4.26;100.00;99927.41;5070718;28;19912;-72
2023/03/07 06:28:30;;;;;;;;;;;;;;;4.46;100.00;99923.34;5070312;28;19912;-73
2023/03/07 06:30:55;;;;;;;;;;;;;;;4.54;100.00;99923.75;5070558;28;19908;-72
2023/03/07 06:33:20;;;;;;;;;;;;;;;4.60;100.00;99916.41;5071131;28;20294;-71
2023/03/07 06:35:46;;;;;;;;;;;;;;;4.68;100.00;99925.31;5068944;28;19998;-72
2023/03/07 06:38:13;;;;;;;;;;;;;;;4.81;100.00;99910.59;5065980;28;20276;-71
2023/03/07 06:40:39;;;;;;;;;;;;;;;5.01;100.00;99914.19;5056527;28;19963;-71
2023/03/07 06:43:05;;;;;;;;;;;;;;;5.12;100.00;99918.16;5070904;28;19939;-72
2023/03/07 06:45:30;;;;;;;;;;;;;;;5.33;100.00;99915.78;5070126;28;20414;-69
2023/03/07 06:47:55;;;;;;;;;;;;;;;5.48;100.00;99919.88;5069624;28;19918;-69
2023/03/07 06:50:20;;;;;;;;;;;;;;;5.52;100.00;99921.81;5070232;28;19920;-74
2023/03/07 06:55:49;;;;;;;;;;;;;;;5.80;100.00;99916.28;5099325;22;19968;-70
2023/03/07 06:58:15;;;;;;;;;;;;;;;5.91;100.00;99928.75;5086176;28;19913;-66
2023/03/07 07:00:40;;;;;;;;;;;;;;;6.06;100.00;99924.38;5075575;28;19916;-66
2023/03/07 07:03:05;;;;;;;;;;;;;;;5.95;100.00;99921.25;5077965;28;19916;-66
2023/03/07 07:05:31;;;;;;;;;;;;;;;6.05;100.00;99916.59;5097678;28;19916;-66
2023/03/07 07:07:56;;;;;;;;;;;;;;;6.24;100.00;99918.31;5084909;28;19938;-65
2023/03/07 07:10:22;;;;;;;;;;;;;;;6.35;100.00;99911.13;5089523;28;20353;-66
2023/03/07 07:12:47;;;;;;;;;;;;;;;6.49;100.00;99915.16;5081303;28;19916;-68
2023/03/07 07:15:13;;;;;;;;;;;;;;;6.61;100.00;99915.69;5082456;28;19916;-68
2023/03/07 07:17:38;;;;;;;;;;;;;;;6.75;100.00;99903.50;5085908;28;19973;-68
2023/03/07 07:20:04;;;;;;;;;;;;;;;6.94;100.00;99905.16;5085098;28;19927;-68
2023/03/07 07:22:30;;;;;;;;;;;;;;;7.06;100.00;99909.06;5099711;28;19915;-68
2023/03/07 07:24:55;;;;;;;;;;;;;;;7.27;100.00;99897.09;5092204;28;19919;-68
2023/03/07 07:27:20;;;;;;;;;;;;;;;7.47;100.00;99897.03;5083968;28;19916;-69
2023/03/07 07:29:46;;;;;;;;;;;;;;;7.59;100.00;99894.94;5085371;28;19912;-69
2023/03/07 07:32:11;;;;;;;;;;;;;;;7.80;100.00;99891.47;5089824;28;19934;-68
2023/03/07 07:34:36;;;;;;;;;;;;;;;8.01;100.00;99887.97;5089290;28;19912;-69
2023/03/07 07:37:03;;;;;;;;;;;;;;;8.31;100.00;99889.94;5082857;28;19916;-67
2023/03/07 07:39:29;;;;;;;;;;;;;;;8.55;100.00;99885.69;5072264;28;20304;-66
2023/03/07 07:41:55;;;;;;;;;;;;;;;8.81;100.00;99888.31;5074116;28;19925;-66
2023/03/07 07:44:20;;;;;;;;;;;;;;;9.01;100.00;99888.09;5073778;28;19912;-66
2023/03/07 07:46:45;;;;;;;;;;;;;;;9.00;100.00;99883.81;5079182;28;19922;-69
2023/03/07 07:49:11;;;;;;;;;;;;;;;9.34;100.00;99884.91;5093627;28;19912;-69
2023/03/07 07:51:38;;;;;;;;;;;;;;;9.57;100.00;99889.94;5082154;28;20301;-67
2023/03/07 07:54:03;;;;;;;;;;;;;;;9.62;100.00;99888.38;5073716;28;19991;-67
2023/03/07 07:56:29;;;;;;;;;;;;;;;9.65;100.00;99888.47;5073665;28;20447;-67
2023/03/07 07:58:54;;;;;;;;;;;;;;;9.77;100.00;99886.28;5073157;28;19968;-69
2023/03/07 08:01:21;;;;;;;;;;;;;;;9.92;100.00;99884.97;5073942;28;19969;-67
2023/03/07 08:03:46;;;;;;;;;;;;;;;10.04;100.00;99886.25;5073750;28;19999;-67
2023/03/07 08:06:12;;;;;;;;;;;;;;;10.25;100.00;99891.97;5073452;28;20058;-67
2023/03/07 08:08:38;;;;;;;;;;;;;;;10.38;100.00;99880.31;5083964;28;19955;-67
2023/03/07 08:11:04;;;;;;;;;;;;;;;10.64;100.00;99881.94;5076259;28;19912;-76
2023/03/07 08:13:29;;;;;;;;;;;;;;;10.79;100.00;99888.31;5102603;28;19956;-69
2023/03/07 08:15:54;;;;;;;;;;;;;;;10.96;100.00;99884.47;5114476;28;19931;-69
2023/03/07 08:18:20;;;;;;;;;;;;;;;11.04;100.00;99884.69;5114284;28;20315;-68
2023/03/07 08:20:45;;;;;;;;;;;;;;;10.98;100.00;99887.97;5114225;28;20029;-69
2023/03/07 08:23:10;;;;;;;;;;;;;;;11.10;100.00;99884.84;5114327;28;19923;-69
2023/03/07 08:25:36;;;;;;;;;;;;;;;11.36;100.00;99878.56;5114235;28;19915;-69
2023/03/07 08:28:03;;;;;;;;;;;;;;;11.43;100.00;99875.31;5114390;28;19916;-69
2023/03/07 08:30:29;;;;;;;;;;;;;;;11.62;99.11;99868.84;5113953;28;20376;-69
2023/03/07 08:32:55;;;;;;;;;;;;;;;11.79;98.94;99866.66;5114040;28;19919;-70
2023/03/07 08:35:21;;;;;;;;;;;;;;;11.98;98.62;99866.22;5114291;28;19926;-69
2023/03/07 08:37:48;;;;;;;;;;;;;;;12.18;96.33;99868.34;5114206;28;19970;-70
2023/03/07 08:40:13;;;;;;;;;;;;;;;12.27;96.20;99865.09;5114184;28;19912;-69
2023/03/07 08:42:38;;;;;;;;;;;;;;;12.43;94.70;99866.28;5113812;28;19934;-69
2023/03/07 08:45:04;;;;;;;;;;;;;;;12.58;93.99;99858.78;5114183;28;19918;-69
2023/03/07 08:47:29;;;;;;;;;;;;;;;12.71;92.84;99861.59;5113996;28;20287;-70
2023/03/07 08:49:54;;;;;;;;;;;;;;;12.61;96.10;99865.72;5112965;28;19918;-69
2023/03/07 08:52:20;;;;;;;;;;;;;;;12.70;93.78;99865.94;5113431;28;19911;-69
2023/03/07 08:54:45;;;;;;;;;;;;;;;12.85;92.91;99857.56;5112509;28;19920;-69
2023/03/07 08:57:10;;;;;;;;;;;;;;;12.98;92.61;99853.44;5113874;28;19912;-70
2023/03/07 08:59:36;;;;;;;;;;;;;;;13.02;91.94;99863.03;5114085;27;20415;-69
2023/03/07 09:02:01;;;;;;;;;;;;;;;12.92;91.46;99858.53;5113970;28;20387;-69
2023/03/07 09:04:26;;;;;;;;;;;;;;;13.05;93.98;99857.03;5113544;28;20010;-69
2023/03/07 09:06:52;;;;;;;;;;;;;;;13.00;90.35;99859.53;5113384;28;19911;-69
2023/03/07 09:09:17;;;;;;;;;;;;;;;13.19;89.86;99863.31;5113411;28;19935;-69
2023/03/07 09:11:42;;;;;;;;;;;;;;;13.36;90.44;99858.41;5113229;28;19918;-69
2023/03/07 09:14:07;;;;;;;;;;;;;;;13.53;88.47;99863.91;5113548;28;19996;-70
2023/03/07 09:16:33;;;;;;;;;;;;;;;13.61;88.18;99858.81;5113607;28;19916;-69
2023/03/07 09:18:58;;;;;;;;;;;;;;;13.85;88.55;99855.69;5113295;28;19951;-69
2023/03/07 09:21:23;;;;;;;;;;;;;;;13.97;85.23;99854.09;5113366;28;20311;-69
2023/03/07 09:23:49;;;;;;;;;;;;;;;14.04;85.15;99843.84;5113015;28;19934;-69
2023/03/07 09:26:14;;;;;;;;;;;;;;;14.18;84.43;99844.00;5113051;28;20365;-70
2023/03/07 09:28:40;;;;;;;;;;;;;;;14.10;84.95;99844.78;5113170;28;20010;-69
2023/03/07 09:31:07;;;;;;;;;;;;;;;14.16;85.44;99831.88;5112969;28;19911;-69
2023/03/07 09:33:32;;;;;;;;;;;;;;;14.30;83.79;99835.47;5113141;28;19908;-68
2023/03/07 09:35:57;;;;;;;;;;;;;;;14.50;84.66;99838.28;5113124;28;19961;-69
2023/03/07 09:38:23;;;;;;;;;;;;;;;14.74;82.18;99826.44;5113408;28;20364;-69
2023/03/07 09:40:48;;;;;;;;;;;;;;;14.84;84.39;99827.41;5112685;28;19960;-69
2023/03/07 09:43:21;;;;;;;;;;;;;;;14.87;82.12;99832.63;5093346;28;19938;-69
2023/03/07 09:45:55;;;;;;;;;;;;;;;14.99;83.39;99824.06;5092574;28;19918;-69
2023/03/07 09:48:40;;;;;;;;;;;;;;;15.09;81.72;99820.69;5112397;28;19916;-69
2023/03/07 09:51:14;;;;;;;;;;;;;;;15.26;80.19;99812.16;5112502;28;20445;-69
2023/03/07 09:53:48;;;;;;;;;;;;;;;15.32;80.14;99817.41;5097444;28;19948;-69
2023/03/07 09:56:36;;;;;;;;;;;;;;;15.49;78.13;99813.19;5092263;28;19912;-69
2023/03/07 09:59:08;;;;;;;;;;;;;;;15.68;76.19;99811.53;5069374;28;19920;-69
2023/03/07 10:01:34;;;;;;;;;;;;;;;15.54;76.33;99813.22;5069223;28;19947;-69
2023/03/07 10:04:01;;;;;;;;;;;;;;;15.75;70.88;99807.25;5068618;28;19916;-69
2023/03/07 10:06:33;;;;;;;;;;;;;;;15.85;70.03;99811.66;5069153;28;19912;-69
2023/03/07 10:09:01;;;;;;;;;;;;;;;16.16;68.31;99808.31;5069049;28;20409;-69
2023/03/07 10:11:44;;;;;;;;;;;;;;;16.07;67.81;99811.75;5069258;28;19919;-69
2023/03/07 10:14:27;;;;;;;;;;;;;;;16.12;66.81;99803.97;5068869;28;19908;-69
2023/03/07 10:17:13;;;;;;;;;;;;;;;16.36;65.60;99803.16;5068827;28;20008;-69
2023/03/07 10:19:49;;;;;;;;;;;;;;;16.59;65.83;99784.97;5068722;28;19915;-69
2023/03/07 10:22:32;;;;;;;;;;;;;;;16.44;64.59;99790.16;5068992;28;19920;-69
2023/03/07 10:24:57;;;;;;;;;;;;;;;16.58;63.55;99779.78;5068754;28;19916;-69
2023/03/07 10:27:25;;;;;;;;;;;;;;;16.69;62.18;99783.25;5068962;28;19924;-69
2023/03/07 10:29:52;;;;;;;;;;;;;;;16.98;61.29;99772.88;5068640;28;19912;-69
2023/03/07 10:32:20;;;;;;;;;;;;;;;16.98;59.91;99758.94;5068642;28;19923;-69
2023/03/07 10:34:48;;;;;;;;;;;;;;;16.95;60.62;99749.38;5068569;28;19912;-69
2023/03/07 10:37:18;;;;;;;;;;;;;;;17.01;59.13;99751.13;5090896;28;19999;-69
2023/03/07 10:39:51;;;;;;;;;;;;;;;16.71;59.69;99746.75;5091375;28;20002;-69
2023/03/07 10:42:17;;;;;;;;;;;;;;;16.56;55.25;99734.59;5091458;28;20369;-69
2023/03/07 10:44:44;;;;;;;;;;;;;;;16.49;57.92;99739.78;5090895;28;19923;-69
2023/03/07 10:47:16;;;;;;;;;;;;;;;16.15;64.38;99737.13;5091189;28;19912;-69
2023/03/07 10:49:44;;;;;;;;;;;;;;;15.92;65.84;99728.41;5090998;28;19915;-69
2023/03/07 10:52:18;;;;;;;;;;;;;;;15.89;67.24;99728.38;5091076;28;19919;-69
2023/03/07 10:54:44;;;;;;;;;;;;;;;15.57;66.91;99722.16;5091024;28;20009;-69
2023/03/07 10:57:14;;;;;;;;;;;;;;;15.63;66.46;99716.13;5091128;28;20413;-69
2023/03/07 10:59:42;;;;;;;;;;;;;;;15.69;66.72;99714.41;5089781;28;19930;-69
2023/03/07 11:02:26;;;;;;;;;;;;;;;15.70;65.78;99704.84;5090681;28;19912;-69
2023/03/07 11:04:51;;;;;;;;;;;;;;;15.76;66.35;99704.03;5091121;28;19919;-69
2023/03/07 11:07:22;;;;;;;;;;;;;;;16.02;63.52;99693.72;5091031;28;20530;-69
2023/03/07 11:09:48;;;;;;;;;;;;;;;16.35;59.77;99681.63;5091019;28;19969;-69
2023/03/07 11:12:17;;;;;;;;;;;;;;;16.27;60.50;99683.34;5091040;28;19916;-69
2023/03/07 11:14:50;;;;;;;;;;;;;;;16.04;60.68;99681.56;5089916;28;19912;-69
2023/03/07 11:17:18;;;;;;;;;;;;;;;16.03;59.54;99678.97;5090926;28;19919;-69
2023/03/07 11:19:44;;;;;;;;;;;;;;;15.93;59.35;99673.72;5090934;28;19918;-69
2023/03/07 11:22:16;;;;;;;;;;;;;;;15.92;59.40;99666.78;5090677;28;19969;-69
2023/03/07 11:24:46;;;;;;;;;;;;;;;15.91;60.51;99666.78;5090676;28;20399;-69
2023/03/07 11:27:19;;;;;;;;;;;;;;;16.01;59.01;99664.22;5090742;28;20010;-69
2023/03/07 11:29:55;;;;;;;;;;;;;;;16.13;55.19;99668.56;5090430;28;19912;-69
2023/03/07 11:32:23;;;;;;;;;;;;;;;16.47;52.45;99655.56;5090924;28;20324;-69
2023/03/07 11:34:51;;;;;;;;;;;;;;;16.70;53.21;99653.78;5090703;28;19955;-69
2023/03/07 11:37:16;;;;;;;;;;;;;;;16.57;53.20;99642.53;5090399;28;19908;-69
2023/03/07 11:39:41;;;;;;;;;;;;;;;16.57;51.46;99642.53;5090450;28;20403;-69
2023/03/07 11:42:14;;;;;;;;;;;;;;;16.47;53.41;99631.25;5090533;28;19945;-69
2023/03/07 11:44:51;;;;;;;;;;;;;;;16.16;52.83;99628.63;5090267;28;19912;-69
2023/03/07 11:47:34;;;;;;;;;;;;;;;16.29;55.55;99630.38;5100835;28;19911;-69
2023/03/07 11:50:16;;;;;;;;;;;;;;;16.17;54.37;99626.06;5100608;28;19930;-69
2023/03/07 11:52:56;;;;;;;;;;;;;;;16.02;54.90;99620.81;5101474;28;20002;-69
2023/03/07 11:55:23;;;;;;;;;;;;;;;16.01;54.90;99622.56;5091006;28;19946;-69
2023/03/07 11:57:51;;;;;;;;;;;;;;;15.87;53.85;99621.66;5100078;28;19920;-69
2023/03/07 12:00:22;;;;;;;;;;;;;;;15.99;54.77;99615.63;5099270;28;19912;-69
2023/03/07 12:02:52;;;;;;;;;;;;;;;16.08;55.16;99622.56;5096818;28;20389;-69
2023/03/07 12:05:23;;;;;;;;;;;;;;;16.34;51.54;99612.16;5099151;28;20281;-69
2023/03/07 12:07:51;;;;;;;;;;;;;;;16.31;52.85;99610.41;5100359;28;19923;-69
2023/03/07 12:10:25;;;;;;;;;;;;;;;16.59;53.55;99605.16;5092754;28;19955;-69
2023/03/07 12:12:57;;;;;;;;;;;;;;;16.72;53.00;99606.00;5099725;28;19961;-69
2023/03/07 12:15:28;;;;;;;;;;;;;;;16.76;52.36;99599.03;5097221;28;19912;-69
2023/03/07 12:18:08;;;;;;;;;;;;;;;16.65;53.73;99592.13;5099053;28;20416;-69
2023/03/07 12:20:40;;;;;;;;;;;;;;;16.46;53.80;99603.44;5098784;28;20026;-69
2023/03/07 12:23:08;;;;;;;;;;;;;;;16.56;54.31;99599.97;5100097;28;19916;-69
2023/03/07 12:25:38;;;;;;;;;;;;;;;16.63;52.75;99599.06;5094951;28;19970;-69
2023/03/07 12:28:16;;;;;;;;;;;;;;;16.58;51.13;99590.41;5099478;28;19963;-69
2023/03/07 12:30:44;;;;;;;;;;;;;;;16.65;51.38;99589.53;5093641;28;20455;-69
2023/03/07 12:33:16;;;;;;;;;;;;;;;16.72;49.03;99592.13;5093575;28;20425;-69
2023/03/07 12:35:44;;;;;;;;;;;;;;;16.76;49.32;99586.00;5093460;28;20365;-69
2023/03/07 12:38:09;;;;;;;;;;;;;;;16.56;49.57;99584.34;5096255;28;19931;-70
2023/03/07 12:40:39;;;;;;;;;;;;;;;16.53;50.71;99588.69;5079735;28;19911;-69
2023/03/07 12:43:10;;;;;;;;;;;;;;;16.40;51.18;99591.31;5093404;28;19947;-69
2023/03/07 12:45:51;;;;;;;;;;;;;;;16.55;50.90;99577.38;5097546;28;19923;-69
2023/03/07 12:48:22;;;;;;;;;;;;;;;16.55;51.15;99585.22;5094361;28;20609;-69
2023/03/07 12:50:58;;;;;;;;;;;;;;;16.37;53.54;99600.84;5093882;28;19912;-69